Time;durP1;ratioP1;P1;durP2;ratioP2;P2;SDS_P1;SDS_P2;PMS_P1;PMS_P2;Temp;Humidity;BMP_temperature;BMP_pressure;BME280_temperature;BME280_humidity;BME280_pressure;Samples;Min_cycle;Max_cycle;Signal;HPM_P1;HPM_P2
2023/06/20 00:00:15;;;;;;;12.77;10.40;;;;;;;22.20;97.54;101275.75;5055894;28;20500;-66
2023/06/20 00:02:41;;;;;;;13.27;10.57;;;;;;;22.22;98.04;101274.41;5055383;28;20036;-67
2023/06/20 00:05:06;;;;;;;10.73;9.55;;;;;;;22.18;98.31;101276.00;5054999;28;20025;-66
2023/06/20 00:07:32;;;;;;;12.00;10.65;;;;;;;22.10;98.81;101273.75;5057260;28;20127;-67
2023/06/20 00:09:58;;;;;;;11.43;9.85;;;;;;;22.00;99.52;101268.19;5062456;28;20036;-67
2023/06/20 00:12:23;;;;;;;11.43;10.23;;;;;;;22.01;99.02;101254.22;5040339;28;20033;-67
2023/06/20 00:14:49;;;;;;;11.80;10.60;;;;;;;21.98;99.49;101262.16;5055754;28;20033;-67
2023/06/20 00:17:14;;;;;;;12.45;10.93;;;;;;;21.87;99.68;101252.22;5054816;28;20025;-67
2023/06/20 00:19:40;;;;;;;12.20;10.57;;;;;;;21.91;100.00;101251.41;5055448;28;20025;-67
2023/06/20 00:22:06;;;;;;;12.60;11.30;;;;;;;21.75;100.00;101264.19;5054529;28;20024;-67
2023/06/20 00:24:32;;;;;;;12.02;10.77;;;;;;;21.80;100.00;101264.22;5055988;28;20048;-67
2023/06/20 00:27:02;;;;;;;14.45;11.30;;;;;;;21.50;100.00;101253.88;5055600;28;20454;-67
2023/06/20 00:29:27;;;;;;;11.75;10.55;;;;;;;21.49;100.00;101254.09;5052482;28;20036;-67
2023/06/20 00:31:53;;;;;;;12.00;10.80;;;;;;;21.51;100.00;101254.69;5051856;28;20060;-67
2023/06/20 00:34:18;;;;;;;12.15;10.98;;;;;;;21.42;100.00;101257.06;5034389;28;20037;-67
2023/06/20 00:36:44;;;;;;;14.52;11.27;;;;;;;21.53;100.00;101249.78;5053400;28;20082;-66
2023/06/20 00:39:10;;;;;;;14.23;12.68;;;;;;;21.44;100.00;101249.44;5054011;28;20025;-67
2023/06/20 00:41:36;;;;;;;14.15;11.98;;;;;;;21.28;100.00;101233.91;5053640;28;20025;-67
2023/06/20 00:44:03;;;;;;;13.02;11.73;;;;;;;21.23;100.00;101242.09;5053073;28;20040;-67
2023/06/20 00:46:32;;;;;;;12.57;11.38;;;;;;;21.30;100.00;101250.91;5054735;28;20052;-67
2023/06/20 00:48:59;;;;;;;11.55;10.48;;;;;;;21.33;100.00;101251.22;5054263;28;20067;-67
2023/06/20 00:51:28;;;;;;;12.80;11.50;;;;;;;21.37;100.00;101248.81;5054776;28;20067;-66
2023/06/20 00:53:55;;;;;;;11.93;10.73;;;;;;;21.34;100.00;101250.16;5055039;28;20108;-67
2023/06/20 00:56:21;;;;;;;11.20;10.20;;;;;;;21.25;100.00;101248.13;5055402;28;20180;-67
2023/06/20 00:58:47;;;;;;;12.48;11.15;;;;;;;21.22;100.00;101245.91;5054225;28;20025;-67
2023/06/20 01:01:12;;;;;;;12.00;10.82;;;;;;;21.10;100.00;101254.28;5055158;28;20115;-68
2023/06/20 01:03:38;;;;;;;11.48;10.38;;;;;;;21.09;100.00;101256.22;5041839;28;20072;-67
2023/06/20 01:06:15;;;;;;;11.65;10.50;;;;;;;21.16;100.00;101249.69;5058411;28;20029;-67
2023/06/20 01:08:50;;;;;;;12.52;10.85;;;;;;;21.14;100.00;101260.06;5059470;28;20062;-67
2023/06/20 01:11:21;;;;;;;12.63;11.32;;;;;;;21.17;100.00;101251.34;5059164;28;20033;-67
2023/06/20 01:13:59;;;;;;;11.88;10.68;;;;;;;21.25;100.00;101251.69;5059443;28;20025;-66
2023/06/20 01:16:24;;;;;;;11.13;9.98;;;;;;;21.26;100.00;101258.81;5058733;28;20043;-67
2023/06/20 01:18:58;;;;;;;11.52;10.43;;;;;;;21.24;100.00;101246.47;5059957;28;20754;-67
2023/06/20 01:21:34;;;;;;;10.53;9.63;;;;;;;21.04;100.00;101256.13;5059172;28;20032;-67
2023/06/20 01:24:03;;;;;;;10.98;9.88;;;;;;;21.10;100.00;101262.50;5057937;28;20273;-67
2023/06/20 01:26:35;;;;;;;10.88;9.77;;;;;;;21.03;100.00;101256.41;5059562;28;20509;-67
2023/06/20 01:29:16;;;;;;;10.63;9.63;;;;;;;21.10;100.00;101257.84;5057538;28;20115;-67
2023/06/20 01:31:49;;;;;;;11.05;9.52;;;;;;;21.09;100.00;101264.41;5054845;28;20021;-66
2023/06/20 01:34:27;;;;;;;10.45;9.45;;;;;;;21.01;100.00;101245.72;5057767;28;20609;-66
2023/06/20 01:37:01;;;;;;;10.13;9.13;;;;;;;20.84;100.00;101251.28;5058396;28;20126;-66
2023/06/20 01:39:47;;;;;;;9.02;8.23;;;;;;;20.79;100.00;101240.28;5058022;28;20108;-67
2023/06/20 01:42:15;;;;;;;9.35;8.45;;;;;;;20.88;100.00;101259.78;5056799;28;20098;-67
2023/06/20 01:44:41;;;;;;;10.25;8.73;;;;;;;20.95;100.00;101249.47;5053017;28;20179;-67
2023/06/20 01:47:09;;;;;;;9.70;7.93;;;;;;;20.99;100.00;101256.09;5040726;28;20466;-66
2023/06/20 01:49:36;;;;;;;8.70;7.90;;;;;;;20.99;100.00;101255.25;5058984;28;20068;-67
2023/06/20 01:52:03;;;;;;;8.90;8.00;;;;;;;20.98;100.00;101259.09;5057310;28;20033;-67
2023/06/20 01:54:31;;;;;;;10.43;8.00;;;;;;;21.01;100.00;101261.31;5057264;28;20029;-67
2023/06/20 01:56:58;;;;;;;8.90;8.10;;;;;;;21.07;100.00;101254.81;5056847;28;20071;-67
2023/06/20 01:59:26;;;;;;;9.10;8.18;;;;;;;21.06;100.00;101256.72;5056475;28;20025;-67
2023/06/20 02:01:55;;;;;;;8.95;8.07;;;;;;;21.11;100.00;101258.66;5058158;28;20090;-66
2023/06/20 02:04:22;;;;;;;8.90;7.97;;;;;;;21.13;100.00;101253.78;5058589;28;20703;-67
2023/06/20 02:06:49;;;;;;;8.20;7.28;;;;;;;20.94;100.00;101234.16;5056946;28;20029;-67
2023/06/20 02:09:16;;;;;;;8.38;7.45;;;;;;;20.98;100.00;101239.94;5057187;28;20052;-67
2023/06/20 02:11:46;;;;;;;9.48;7.38;;;;;;;21.04;100.00;101230.69;5057811;28;20116;-67
2023/06/20 02:14:12;;;;;;;8.43;7.57;;;;;;;20.98;100.00;101227.06;5056495;28;20033;-68
2023/06/20 02:16:39;;;;;;;9.55;7.70;;;;;;;21.11;100.00;101240.34;5057410;28;20075;-67
2023/06/20 02:19:07;;;;;;;8.38;7.57;;;;;;;21.11;100.00;101236.78;5056922;28;20398;-67
2023/06/20 02:21:37;;;;;;;9.35;7.70;;;;;;;21.16;99.73;101241.47;5056593;28;20158;-66
2023/06/20 02:24:06;;;;;;;8.25;7.38;;;;;;;21.22;99.41;101245.91;5057451;28;20029;-66
2023/06/20 02:26:34;;;;;;;8.30;7.32;;;;;;;21.23;99.28;101250.31;5056732;28;20037;-67
2023/06/20 02:29:05;;;;;;;8.32;7.32;;;;;;;21.17;98.91;101248.59;5057886;28;20088;-66
2023/06/20 02:31:33;;;;;;;7.88;7.10;;;;;;;21.17;99.12;101256.81;5057213;28;20098;-66
2023/06/20 02:34:03;;;;;;;8.30;7.50;;;;;;;21.21;98.93;101247.81;5055066;28;20111;-66
2023/06/20 02:36:30;;;;;;;9.07;7.20;;;;;;;21.19;98.69;101244.53;5056513;28;20029;-67
2023/06/20 02:38:56;;;;;;;8.40;7.55;;;;;;;21.19;98.55;101263.69;5057573;28;20396;-67
2023/06/20 02:41:22;;;;;;;8.32;7.53;;;;;;;21.25;98.34;101251.69;5056052;28;20033;-67
2023/06/20 02:43:48;;;;;;;7.88;7.07;;;;;;;21.27;98.41;101252.25;5056370;28;20544;-67
2023/06/20 02:46:27;;;;;;;7.82;7.05;;;;;;;21.29;98.13;101246.50;5057509;28;20048;-67
2023/06/20 02:49:15;;;;;;;8.23;7.43;;;;;;;21.29;98.04;101243.78;5057697;28;20059;-67
2023/06/20 02:51:54;;;;;;;7.95;6.80;;;;;;;21.30;97.91;101240.78;5056241;28;20434;-67
2023/06/20 02:54:35;;;;;;;8.00;7.20;;;;;;;21.29;97.73;101241.88;5057344;28;20029;-66
2023/06/20 02:57:03;;;;;;;8.05;7.32;;;;;;;21.30;97.70;101242.72;5053817;28;20139;-67
2023/06/20 02:59:33;;;;;;;10.02;6.95;;;;;;;21.32;97.86;101252.31;5054278;28;20471;-66
2023/06/20 03:02:05;;;;;;;8.45;7.00;;;;;;;21.39;97.67;101257.63;5055992;28;20029;-67
2023/06/20 03:04:34;;;;;;;8.90;6.80;;;;;;;21.40;97.49;101251.03;5056651;28;20071;-66
2023/06/20 03:07:02;;;;;;;8.63;7.00;;;;;;;21.47;97.36;101257.13;5057206;28;20032;-66
2023/06/20 03:09:33;;;;;;;10.45;7.43;;;;;;;21.45;97.37;101258.47;5056800;28;20036;-66
2023/06/20 03:11:59;;;;;;;8.50;7.50;;;;;;;21.42;97.42;101261.72;5055199;28;20379;-67
2023/06/20 03:14:24;;;;;;;7.78;7.05;;;;;;;21.42;97.14;101262.53;5055182;28;20036;-67
2023/06/20 03:16:50;;;;;;;7.40;6.60;;;;;;;21.47;96.83;101254.38;5056183;28;20503;-67
2023/06/20 03:19:15;;;;;;;7.80;6.93;;;;;;;21.47;97.00;101265.34;5056175;28;20025;-66
2023/06/20 03:21:40;;;;;;;8.07;7.28;;;;;;;21.44;96.90;101260.38;5053823;28;20029;-66
2023/06/20 03:24:06;;;;;;;7.10;6.40;;;;;;;21.49;96.90;101263.19;5054763;28;20025;-67
2023/06/20 03:26:33;;;;;;;7.53;6.70;;;;;;;21.51;96.91;101260.16;5055319;28;20025;-66
2023/06/20 03:28:59;;;;;;;7.85;6.78;;;;;;;21.44;96.93;101254.09;5055572;28;20071;-66
2023/06/20 03:31:24;;;;;;;7.50;6.80;;;;;;;21.50;96.82;101270.28;5058799;28;20029;-68
2023/06/20 03:33:50;;;;;;;7.07;6.35;;;;;;;21.49;97.04;101265.06;5057782;28;20067;-66
2023/06/20 03:36:15;;;;;;;8.27;7.47;;;;;;;21.52;96.88;101270.00;5055616;28;20032;-66
2023/06/20 03:38:42;;;;;;;10.15;6.85;;;;;;;21.45;97.55;101259.28;5055725;28;20025;-67
2023/06/20 03:41:07;;;;;;;7.57;6.88;;;;;;;21.52;97.40;101268.13;5056526;28;20033;-67
2023/06/20 03:43:33;;;;;;;8.57;7.70;;;;;;;21.60;97.00;101269.56;5038472;28;20086;-67
2023/06/20 03:45:59;;;;;;;7.78;7.00;;;;;;;21.61;97.13;101264.91;5056571;28;20049;-67
2023/06/20 03:48:25;;;;;;;7.40;6.75;;;;;;;21.64;97.22;101272.59;5036827;28;20124;-67
2023/06/20 03:50:50;;;;;;;8.00;7.20;;;;;;;21.65;96.99;101271.50;5055458;28;20104;-66
2023/06/20 03:53:16;;;;;;;8.50;7.38;;;;;;;21.72;97.11;101267.47;5055301;28;20044;-66
2023/06/20 03:55:42;;;;;;;8.15;7.40;;;;;;;21.75;96.88;101271.56;5055679;28;20021;-67
2023/06/20 03:58:07;;;;;;;7.35;6.70;;;;;;;21.91;96.42;101275.25;5055189;28;20033;-66
2023/06/20 04:00:33;;;;;;;8.02;7.25;;;;;;;21.86;96.30;101251.41;5034767;28;20079;-66
2023/06/20 04:02:59;;;;;;;8.07;7.10;;;;;;;22.02;96.15;101260.56;5035262;28;20037;-66
2023/06/20 04:05:25;;;;;;;11.70;7.50;;;;;;;22.07;96.65;101268.78;5034549;28;20072;-67
2023/06/20 04:07:51;;;;;;;7.97;7.25;;;;;;;22.21;96.06;101271.91;5035148;28;20033;-67
2023/06/20 04:10:16;;;;;;;9.07;7.25;;;;;;;22.27;95.97;101270.84;5034037;28;20442;-67
2023/06/20 04:12:42;;;;;;;8.93;7.15;;;;;;;22.27;96.31;101273.59;5032232;28;20052;-67
2023/06/20 04:15:09;;;;;;;8.23;7.20;;;;;;;22.19;96.37;101258.50;5034636;28;20025;-67
2023/06/20 04:17:35;;;;;;;9.05;7.32;;;;;;;22.31;96.11;101260.19;5035406;28;20029;-67
2023/06/20 04:20:00;;;;;;;8.02;7.22;;;;;;;22.51;95.51;101273.97;5051017;28;20335;-68
2023/06/20 04:22:27;;;;;;;7.55;6.85;;;;;;;22.51;94.68;101254.78;5051655;28;20040;-66
2023/06/20 04:24:53;;;;;;;7.90;7.10;;;;;;;22.81;94.03;101273.28;5055729;28;20021;-67
2023/06/20 04:27:18;;;;;;;7.85;7.15;;;;;;;22.83;93.72;101273.84;5054227;28;20498;-67
2023/06/20 04:29:44;;;;;;;8.07;6.82;;;;;;;22.87;93.66;101282.34;5054382;28;20065;-68
2023/06/20 04:32:10;;;;;;;8.02;7.22;;;;;;;22.89;93.62;101270.00;5058553;28;20108;-68
2023/06/20 04:34:35;;;;;;;8.68;7.50;;;;;;;22.93;93.84;101276.63;5055990;28;20113;-67
2023/06/20 04:37:01;;;;;;;8.10;7.30;;;;;;;22.89;93.91;101275.50;5054377;28;20135;-67
2023/06/20 04:39:29;;;;;;;8.40;7.60;;;;;;;22.84;94.27;101269.16;5037213;28;20086;-67
2023/06/20 04:41:55;;;;;;;8.10;7.30;;;;;;;22.74;94.61;101270.78;5055389;28;20029;-67
2023/06/20 04:44:21;;;;;;;8.60;7.70;;;;;;;22.64;95.06;101272.66;5054461;28;20036;-68
2023/06/20 04:46:46;;;;;;;9.13;7.68;;;;;;;22.69;94.92;101270.78;5054094;28;20129;-68
2023/06/20 04:49:11;;;;;;;8.65;7.50;;;;;;;22.67;95.33;101272.13;5037692;28;20033;-68
2023/06/20 04:51:40;;;;;;;8.10;7.30;;;;;;;22.74;95.32;101272.69;5055074;28;20116;-68
2023/06/20 04:54:06;;;;;;;8.85;7.40;;;;;;;22.87;94.78;101271.38;5038496;28;20040;-68
2023/06/20 04:56:32;;;;;;;8.10;7.40;;;;;;;22.87;94.99;101265.88;5055294;28;20029;-68
2023/06/20 04:58:59;;;;;;;9.10;6.70;;;;;;;22.83;95.27;101267.53;5052215;28;20025;-69
2023/06/20 05:01:24;;;;;;;8.80;7.05;;;;;;;22.93;95.39;101276.63;5055703;28;20107;-68
2023/06/20 05:03:50;;;;;;;9.00;7.35;;;;;;;22.90;95.21;101262.59;5055343;28;20029;-68
2023/06/20 05:06:17;;;;;;;9.88;7.65;;;;;;;22.83;94.98;101260.13;5037209;28;20510;-67
2023/06/20 05:08:45;;;;;;;8.85;7.88;;;;;;;23.01;94.57;101271.72;5053161;28;20025;-68
2023/06/20 05:11:11;;;;;;;11.02;7.18;;;;;;;22.98;94.65;101264.88;5048929;28;20028;-67
2023/06/20 05:13:37;;;;;;;8.00;7.10;;;;;;;22.99;94.64;101263.75;5048405;28;20032;-67
2023/06/20 05:16:04;;;;;;;10.18;7.07;;;;;;;23.02;94.51;101265.16;5050108;28;20732;-67
2023/06/20 05:18:30;;;;;;;8.65;7.00;;;;;;;23.23;93.78;101275.06;5050825;28;20025;-67
2023/06/20 05:20:55;;;;;;;8.07;7.28;;;;;;;23.28;93.76;101268.72;5051604;28;20074;-68
2023/06/20 05:23:21;;;;;;;7.97;7.18;;;;;;;23.45;93.08;101266.56;5051880;28;20037;-67
2023/06/20 05:25:46;;;;;;;10.73;7.30;;;;;;;23.57;92.46;101256.13;5054279;28;20039;-68
2023/06/20 05:28:13;;;;;;;7.57;6.88;;;;;;;23.76;91.49;101259.16;5056424;28;20055;-67
2023/06/20 05:30:38;;;;;;;7.78;6.97;;;;;;;23.86;90.99;101261.91;5056602;28;20059;-67
2023/06/20 05:33:04;;;;;;;8.57;6.43;;;;;;;23.84;91.12;101271.50;5055538;28;20511;-67
2023/06/20 05:35:29;;;;;;;10.63;7.07;;;;;;;23.81;91.40;101275.66;5037473;28;20055;-68
2023/06/20 05:37:54;;;;;;;7.68;6.60;;;;;;;23.84;91.12;101280.59;5054009;28;20403;-68
2023/06/20 05:40:20;;;;;;;10.07;7.32;;;;;;;23.83;91.11;101278.13;5054389;28;20035;-66
2023/06/20 05:42:45;;;;;;;9.48;6.95;;;;;;;23.73;91.32;101278.94;5054437;28;20074;-67
2023/06/20 05:45:11;;;;;;;8.50;7.20;;;;;;;23.63;91.60;101289.91;5037473;28;20071;-68
2023/06/20 05:47:36;;;;;;;9.02;7.18;;;;;;;23.54;91.36;101275.91;5056301;28;20549;-69
2023/06/20 05:50:02;;;;;;;11.52;7.90;;;;;;;23.48;91.65;101289.91;5058957;28;20113;-67
2023/06/20 05:52:27;;;;;;;11.48;8.02;;;;;;;23.39;91.99;101293.19;5056851;28;20040;-68
2023/06/20 05:54:56;;;;;;;9.05;7.43;;;;;;;23.29;92.32;101279.47;5058646;28;20036;-68
2023/06/20 05:57:21;;;;;;;10.48;7.80;;;;;;;23.30;92.25;101303.06;5056810;28;20068;-67
2023/06/20 05:59:47;;;;;;;9.38;7.80;;;;;;;23.17;92.62;101300.84;5056473;28;20527;-67
2023/06/20 06:02:13;;;;;;;10.68;8.48;;;;;;;23.12;92.87;101300.84;5056546;28;20032;-67
2023/06/20 06:04:38;;;;;;;8.35;7.20;;;;;;;23.10;93.07;101303.84;5056218;28;20629;-67
2023/06/20 06:07:07;;;;;;;9.20;7.80;;;;;;;23.07;93.16;101309.06;5057573;28;20028;-67
2023/06/20 06:09:33;;;;;;;10.07;7.43;;;;;;;23.03;93.51;101313.44;5056439;28;20036;-66
2023/06/20 06:11:58;;;;;;;11.63;8.18;;;;;;;22.82;93.44;101279.59;5056927;28;20033;-66
2023/06/20 06:14:24;;;;;;;9.82;8.07;;;;;;;23.05;93.33;101311.28;5056871;28;20047;-67
2023/06/20 06:16:49;;;;;;;10.18;8.93;;;;;;;22.91;93.94;101317.22;5057364;28;20071;-66
2023/06/20 06:19:15;;;;;;;8.85;7.72;;;;;;;22.97;93.76;101313.41;5056500;28;20128;-67
2023/06/20 06:21:40;;;;;;;9.35;7.88;;;;;;;22.92;93.87;101313.38;5059387;28;20059;-67
2023/06/20 06:24:06;;;;;;;10.98;8.15;;;;;;;22.79;94.18;101297.44;5061560;28;20142;-68
2023/06/20 06:26:32;;;;;;;10.27;8.30;;;;;;;22.95;93.92;101312.88;5058212;28;20086;-69
2023/06/20 06:28:59;;;;;;;10.63;9.52;;;;;;;22.91;94.06;101316.38;5058032;28;20041;-67
2023/06/20 06:31:29;;;;;;;10.75;9.60;;;;;;;22.81;94.77;101319.09;5057645;28;20032;-68
2023/06/20 06:33:59;;;;;;;11.65;9.65;;;;;;;22.60;95.67;101309.97;5057024;28;20029;-68
2023/06/20 06:36:26;;;;;;;11.80;10.68;;;;;;;22.57;96.78;101319.53;5040784;28;20090;-68
2023/06/20 06:38:52;;;;;;;12.23;10.98;;;;;;;22.57;97.04;101330.50;5035488;28;20032;-68
2023/06/20 06:41:18;;;;;;;13.50;11.15;;;;;;;22.58;97.86;101331.34;5056661;28;20029;-68
2023/06/20 06:43:44;;;;;;;13.00;11.80;;;;;;;22.43;98.58;101326.59;5056626;28;20506;-68
2023/06/20 06:46:10;;;;;;;13.75;11.60;;;;;;;22.48;99.27;101330.22;5058267;28;20049;-68
2023/06/20 06:48:36;;;;;;;14.23;12.30;;;;;;;22.43;99.83;101326.59;5039766;28;20111;-69
2023/06/20 06:51:02;;;;;;;15.52;13.25;;;;;;;22.37;100.00;101325.75;5057379;28;20480;-69
2023/06/20 06:53:28;;;;;;;15.52;13.52;;;;;;;22.37;100.00;101330.41;5058123;28;20055;-67
2023/06/20 06:55:54;;;;;;;15.50;13.93;;;;;;;22.42;100.00;101335.94;5058220;28;20021;-69
2023/06/20 06:58:19;;;;;;;17.38;14.20;;;;;;;22.52;100.00;101338.72;5058738;28;20119;-69
2023/06/20 07:00:45;;;;;;;14.75;13.25;;;;;;;22.59;100.00;101339.31;5056379;28;20045;-68
2023/06/20 07:03:11;;;;;;;15.85;13.98;;;;;;;22.67;100.00;101338.78;5040204;28;20475;-68
2023/06/20 07:05:37;;;;;;;15.27;13.80;;;;;;;22.72;100.00;101346.25;5055780;28;20029;-68
2023/06/20 07:08:02;;;;;;;14.90;13.27;;;;;;;22.69;100.00;101322.06;5039341;28;20037;-68
2023/06/20 07:10:28;;;;;;;14.93;12.95;;;;;;;22.86;100.00;101350.13;5054978;28;20415;-68
2023/06/20 07:12:53;;;;;;;16.70;12.93;;;;;;;22.76;100.00;101330.88;5055727;28;20373;-68
2023/06/20 07:15:19;;;;;;;15.70;14.07;;;;;;;22.93;100.00;101350.72;5038265;28;20480;-68
2023/06/20 07:17:44;;;;;;;14.57;13.15;;;;;;;22.93;100.00;101328.78;5054314;28;20112;-69
2023/06/20 07:20:10;;;;;;;13.93;12.60;;;;;;;23.04;100.00;101343.34;5055791;28;20626;-69
2023/06/20 07:22:37;;;;;;;14.93;13.25;;;;;;;23.07;100.00;101359.28;5056558;28;20421;-69
2023/06/20 07:25:03;;;;;;;15.10;12.75;;;;;;;23.08;100.00;101358.22;5056572;28;20079;-69
2023/06/20 07:27:29;;;;;;;16.63;12.73;;;;;;;23.12;100.00;101364.00;5054722;28;20033;-67
2023/06/20 07:29:54;;;;;;;13.35;11.50;;;;;;;23.12;100.00;101372.22;5056454;28;20043;-68
2023/06/20 07:32:20;;;;;;;13.13;11.75;;;;;;;23.17;99.97;101366.72;5038585;28;20029;-69
2023/06/20 07:34:45;;;;;;;13.85;12.38;;;;;;;23.14;99.87;101375.50;5056481;28;20036;-68
2023/06/20 07:37:11;;;;;;;15.52;12.80;;;;;;;23.13;99.59;101379.34;5056558;28;20164;-69
2023/06/20 07:39:40;;;;;;;14.32;12.93;;;;;;;23.18;99.05;101382.13;5038760;28;20021;-68
2023/06/20 07:42:06;;;;;;;16.33;12.70;;;;;;;23.11;99.40;101376.91;5056706;28;20025;-68
2023/06/20 07:44:31;;;;;;;14.00;12.15;;;;;;;23.00;99.03;101357.91;5056892;28;20054;-68
2023/06/20 07:46:57;;;;;;;17.92;13.02;;;;;;;23.13;98.72;101382.09;5056406;28;20690;-67
2023/06/20 07:49:22;;;;;;;13.30;12.00;;;;;;;23.08;98.48;101368.34;5057184;28;20052;-68
2023/06/20 07:51:48;;;;;;;14.52;12.23;;;;;;;23.25;97.88;101388.19;5056542;28;20389;-67
2023/06/20 07:54:16;;;;;;;14.40;12.23;;;;;;;23.23;98.17;101376.63;5051292;28;20483;-67
2023/06/20 07:56:41;;;;;;;16.98;12.32;;;;;;;23.28;98.06;101387.66;5056823;28;20035;-68
2023/06/20 07:59:07;;;;;;;15.10;12.90;;;;;;;23.33;97.34;101393.16;5057730;28;20025;-69
2023/06/20 08:01:32;;;;;;;13.50;12.18;;;;;;;23.23;97.29;101382.13;5056439;28;20029;-69
2023/06/20 08:03:57;;;;;;;16.60;12.57;;;;;;;23.37;96.65;101402.50;5055895;28;20099;-67
2023/06/20 08:06:24;;;;;;;15.52;13.40;;;;;;;23.34;97.09;101396.72;5056160;28;20064;-68
2023/06/20 08:08:50;;;;;;;15.68;13.18;;;;;;;23.30;97.00;101395.59;5056146;28;20025;-69
2023/06/20 08:11:23;;;;;;;15.63;13.45;;;;;;;23.17;97.03;101384.03;5055869;28;20081;-69
2023/06/20 08:13:48;;;;;;;15.30;13.75;;;;;;;23.25;97.05;101398.34;5057336;28;20041;-69
2023/06/20 08:16:14;;;;;;;16.67;13.38;;;;;;;23.31;96.97;101395.34;5057012;28;20033;-69
2023/06/20 08:18:39;;;;;;;14.05;12.60;;;;;;;23.33;96.86;101395.91;5056056;28;20036;-68
2023/06/20 08:21:05;;;;;;;14.23;12.73;;;;;;;23.39;96.66;101397.56;5063127;28;20104;-68
2023/06/20 08:23:30;;;;;;;15.32;12.45;;;;;;;23.52;96.11;101403.66;5062222;28;20033;-68
2023/06/20 08:25:56;;;;;;;14.50;12.60;;;;;;;23.59;96.19;101395.97;5064592;28;20043;-69
2023/06/20 08:28:25;;;;;;;13.68;12.20;;;;;;;23.62;96.23;101407.22;5064731;28;20098;-69
2023/06/20 08:30:52;;;;;;;13.40;12.00;;;;;;;23.62;96.25;101404.47;5056808;28;20037;-67
2023/06/20 08:33:19;;;;;;;17.13;12.40;;;;;;;23.54;96.28;101395.94;5055777;28;20035;-69
2023/06/20 08:35:45;;;;;;;14.35;11.73;;;;;;;23.72;95.90;101403.72;5039026;28;20167;-68
2023/06/20 08:38:11;;;;;;;15.68;12.13;;;;;;;23.84;95.68;101411.66;5056305;28;20102;-68
2023/06/20 08:40:36;;;;;;;13.60;12.20;;;;;;;23.87;95.31;101395.50;5056615;28;20029;-68
2023/06/20 08:43:02;;;;;;;17.92;12.23;;;;;;;24.15;94.25;101407.03;5057719;28;20454;-69
2023/06/20 08:45:28;;;;;;;14.68;10.85;;;;;;;24.32;93.78;101393.81;5057127;28;20132;-68
2023/06/20 08:47:58;;;;;;;13.85;10.18;;;;;;;24.68;92.65;101403.97;5054063;28;20037;-69
2023/06/20 08:50:28;;;;;;;13.80;11.70;;;;;;;24.69;92.57;101408.34;5056481;28;20032;-66
2023/06/20 08:52:54;;;;;;;12.35;10.35;;;;;;;24.75;91.62;101401.72;5055153;28;20055;-69
2023/06/20 08:55:21;;;;;;;12.52;11.20;;;;;;;24.90;90.99;101407.22;5056220;28;20025;-69
2023/06/20 08:57:46;;;;;;;11.75;10.55;;;;;;;24.79;91.14;101408.31;5053415;28;20060;-68
2023/06/20 09:00:17;;;;;;;14.27;10.27;;;;;;;24.82;91.11;101408.59;5054444;28;20037;-68
2023/06/20 09:02:42;;;;;;;11.60;10.27;;;;;;;24.89;90.39;101410.22;5052692;28;20095;-69
2023/06/20 09:05:08;;;;;;;12.52;10.70;;;;;;;24.84;90.43;101409.13;5054619;28;20041;-67
2023/06/20 09:07:38;;;;;;;11.48;10.27;;;;;;;24.78;90.04;101410.25;5055972;28;20040;-67
2023/06/20 09:10:08;;;;;;;12.48;10.18;;;;;;;24.73;90.24;101413.00;5053545;28;20483;-69
2023/06/20 09:12:46;;;;;;;12.45;9.27;;;;;;;24.80;89.93;101408.06;5054982;28;20040;-68
2023/06/20 09:15:22;;;;;;;14.20;9.63;;;;;;;24.92;89.01;101409.66;5055422;28;20040;-68
2023/06/20 09:17:55;;;;;;;11.73;10.20;;;;;;;24.86;89.36;101411.59;5054690;28;20040;-68
2023/06/20 09:20:25;;;;;;;11.27;9.60;;;;;;;24.90;89.28;101403.59;5054747;28;20025;-68
2023/06/20 09:22:51;;;;;;;13.63;10.25;;;;;;;25.02;88.71;101401.34;5037293;28;20543;-68
2023/06/20 09:25:21;;;;;;;13.13;10.18;;;;;;;25.24;87.92;101420.31;5058674;28;20106;-68
2023/06/20 09:27:46;;;;;;;11.45;9.68;;;;;;;25.24;86.97;101410.13;5058209;28;20037;-68
2023/06/20 09:30:12;;;;;;;11.45;10.30;;;;;;;25.23;87.01;101411.22;5059120;28;20128;-69
2023/06/20 09:32:41;;;;;;;14.82;9.23;;;;;;;25.36;86.02;101420.78;5060585;28;20091;-68
2023/06/20 09:35:13;;;;;;;13.75;10.05;;;;;;;25.49;85.45;101417.41;5058467;28;20021;-68
2023/06/20 09:37:47;;;;;;;12.15;9.40;;;;;;;25.69;84.45;101404.59;5058423;28;20066;-68
2023/06/20 09:40:15;;;;;;;10.57;9.13;;;;;;;25.99;83.48;101420.97;5056992;28;20104;-68
2023/06/20 09:42:42;;;;;;;12.63;9.45;;;;;;;26.15;83.34;101418.06;5054500;28;20408;-68
2023/06/20 09:45:09;;;;;;;14.23;9.77;;;;;;;26.41;81.39;101427.75;5057437;28;20029;-68
2023/06/20 09:47:36;;;;;;;12.65;10.02;;;;;;;26.59;79.79;101419.88;5057877;28;20099;-68
2023/06/20 09:50:15;;;;;;;13.82;9.98;;;;;;;26.69;79.09;101420.63;5059194;28;20045;-68
2023/06/20 09:52:46;;;;;;;11.63;9.27;;;;;;;26.74;78.43;101418.91;5057649;28;20432;-68
2023/06/20 09:55:14;;;;;;;9.35;8.43;;;;;;;27.11;77.40;101416.25;5057492;28;20043;-68
2023/06/20 09:58:04;;;;;;;10.13;9.10;;;;;;;27.33;76.40;101406.63;5056680;28;20017;-68
2023/06/20 10:00:31;;;;;;;10.05;8.73;;;;;;;27.43;75.47;101412.00;5056562;28;20017;-68
2023/06/20 10:03:03;;;;;;;9.27;8.07;;;;;;;27.54;74.11;101407.13;5058247;28;20383;-67
2023/06/20 10:05:32;;;;;;;14.25;8.60;;;;;;;27.76;73.46;101414.84;5058978;28;20017;-67
2023/06/20 10:07:59;;;;;;;9.75;8.75;;;;;;;27.92;71.37;101409.91;5058755;28;20112;-66
2023/06/20 10:10:24;;;;;;;9.85;8.63;;;;;;;27.94;70.09;101419.53;5057546;28;20028;-67
2023/06/20 10:12:50;;;;;;;9.07;7.80;;;;;;;27.97;69.82;101413.41;5059294;28;20035;-67
2023/06/20 10:15:17;;;;;;;9.35;8.45;;;;;;;27.86;69.50;101425.75;5058936;28;20027;-67
2023/06/20 10:17:46;;;;;;;9.98;8.07;;;;;;;27.89;69.24;101427.13;5059568;28;20060;-70
2023/06/20 10:20:33;;;;;;;9.40;8.30;;;;;;;27.71;69.44;101432.31;5057801;28;20083;-67
2023/06/20 10:23:05;;;;;;;10.35;8.30;;;;;;;27.61;69.27;101430.50;5055804;28;20036;-67
2023/06/20 10:25:31;;;;;;;12.77;9.82;;;;;;;27.67;69.72;101433.22;5056648;28;20115;-68
2023/06/20 10:28:00;;;;;;;13.60;9.75;;;;;;;27.98;69.11;101433.59;5058632;28;20056;-68
2023/06/20 10:30:50;;;;;;;10.60;9.27;;;;;;;28.23;68.31;101432.34;5061230;28;20021;-68
2023/06/20 10:33:32;;;;;;;12.88;10.52;;;;;;;27.93;68.21;101425.38;5058113;28;20399;-69
2023/06/20 10:36:06;;;;;;;13.50;10.93;;;;;;;27.58;68.62;101411.78;5057749;28;20116;-69
2023/06/20 10:38:33;;;;;;;14.75;10.75;;;;;;;27.63;67.88;101433.81;5056813;28;20033;-68
2023/06/20 10:41:13;;;;;;;14.60;12.02;;;;;;;27.78;66.86;101441.09;5055587;28;20025;-69
2023/06/20 10:43:55;;;;;;;13.48;11.88;;;;;;;27.73;65.54;101432.84;5059166;28;20052;-70
2023/06/20 10:46:41;;;;;;;13.45;10.32;;;;;;;27.66;65.48;101434.34;5063123;28;20061;-68
2023/06/20 10:49:08;;;;;;;12.00;10.52;;;;;;;27.47;65.13;101426.84;5061460;28;20025;-68
2023/06/20 10:51:44;;;;;;;11.93;10.65;;;;;;;27.52;65.09;101428.75;5058170;28;20040;-70
2023/06/20 10:54:14;;;;;;;11.68;10.05;;;;;;;27.72;65.35;101425.69;5056325;28;20084;-69
2023/06/20 10:56:39;;;;;;;12.07;9.90;;;;;;;28.00;64.58;101434.94;5058310;28;20123;-68
2023/06/20 10:59:12;;;;;;;11.68;9.77;;;;;;;28.07;64.17;101427.06;5058311;28;20072;-69
2023/06/20 11:01:37;;;;;;;12.40;10.75;;;;;;;28.31;63.28;101429.72;5059587;28;20033;-68
2023/06/20 11:04:10;;;;;;;11.25;10.00;;;;;;;28.40;61.95;101424.31;5058898;28;20037;-68
2023/06/20 11:06:36;;;;;;;12.57;10.40;;;;;;;28.40;61.83;101429.03;5058457;28;20044;-70
2023/06/20 11:09:02;;;;;;;14.38;10.50;;;;;;;28.29;62.38;101433.91;5057223;28;20045;-68
2023/06/20 11:11:37;;;;;;;12.05;10.20;;;;;;;28.52;61.38;101421.88;5060279;28;20488;-68
2023/06/20 11:14:15;;;;;;;12.25;10.48;;;;;;;28.64;60.79;101426.09;5058855;28;20067;-68
2023/06/20 11:16:42;;;;;;;11.57;9.63;;;;;;;28.55;60.79;101428.78;5057821;28;20053;-68